Time;durP1;ratioP1;P1;durP2;ratioP2;P2;SDS_P1;SDS_P2;PMS_P1;PMS_P2;Temp;Humidity;BMP_temperature;BMP_pressure;BME280_temperature;BME280_humidity;BME280_pressure;Samples;Min_cycle;Max_cycle;Signal;HPM_P1;HPM_P2
2023/05/14 00:02:19;;;;;;;5.45;1.55;;;18.90;71.80;;;;;;4088124;29;20097;-58
2023/05/14 00:04:42;;;;;;;2.20;1.55;;;18.90;71.80;;;;;;4083725;29;20526;-57
2023/05/14 00:07:05;;;;;;;3.17;1.50;;;18.90;72.00;;;;;;4085034;29;20523;-56
2023/05/14 00:09:29;;;;;;;4.43;1.33;;;18.90;71.90;;;;;;4085229;29;20043;-52
2023/05/14 00:11:51;;;;;;;4.28;1.35;;;18.90;71.90;;;;;;4076733;29;20036;-60
2023/05/14 00:14:14;;;;;;;3.28;1.10;;;18.90;72.00;;;;;;4084827;29;20106;-59
2023/05/14 00:16:36;;;;;;;2.75;1.00;;;19.00;71.70;;;;;;4085088;29;20499;-58
2023/05/14 00:18:59;;;;;;;7.43;1.52;;;18.90;71.70;;;;;;4082049;29;20059;-60
2023/05/14 00:21:21;;;;;;;10.93;1.45;;;19.00;71.70;;;;;;4076587;29;20465;-50
2023/05/14 00:23:43;;;;;;;4.32;1.48;;;19.00;72.00;;;;;;4070718;29;20123;-52
2023/05/14 00:26:06;;;;;;;7.93;1.85;;;19.00;71.80;;;;;;4064087;29;20536;-48
2023/05/14 00:28:28;;;;;;;2.88;1.73;;;19.00;72.00;;;;;;4078789;29;20074;-50
2023/05/14 00:30:51;;;;;;;3.30;1.63;;;19.00;71.70;;;;;;4078655;29;20048;-47
2023/05/14 00:33:13;;;;;;;3.03;1.20;;;19.00;71.50;;;;;;4082695;29;20433;-49
2023/05/14 00:35:36;;;;;;;3.83;1.70;;;19.00;71.40;;;;;;4082503;29;20043;-46
2023/05/14 00:37:58;;;;;;;4.10;1.50;;;19.00;71.40;;;;;;4088117;29;20087;-53
2023/05/14 00:40:26;;;;;;;3.15;1.15;;;19.00;71.20;;;;;;4085944;29;20043;-49
2023/05/14 00:42:48;;;;;;;2.63;1.40;;;19.00;71.40;;;;;;4082525;29;20493;-48
2023/05/14 00:45:11;;;;;;;2.55;1.15;;;19.00;71.00;;;;;;4082545;29;20039;-47
2023/05/14 00:47:34;;;;;;;2.30;0.98;;;19.00;70.90;;;;;;4075498;29;20268;-46
2023/05/14 00:49:56;;;;;;;2.47;1.20;;;19.00;70.90;;;;;;4074451;29;20046;-46
2023/05/14 00:52:19;;;;;;;1.45;1.10;;;19.10;70.90;;;;;;4078865;29;20407;-49
2023/05/14 00:54:46;;;;;;;1.55;1.00;;;19.00;70.80;;;;;;4085011;29;20050;-47
2023/05/14 00:57:08;;;;;;;1.25;0.90;;;19.00;70.80;;;;;;4086805;28;20487;-50
2023/05/14 00:59:31;;;;;;;3.10;1.20;;;19.00;70.90;;;;;;4088164;29;20039;-47
2023/05/14 01:01:54;;;;;;;1.73;1.42;;;19.00;71.00;;;;;;4082894;29;20035;-45
2023/05/14 01:04:17;;;;;;;4.63;1.27;;;19.10;71.00;;;;;;4080140;28;20484;-47
2023/05/14 01:06:51;;;;;;;3.25;1.42;;;19.10;71.00;;;;;;4071604;29;20412;-49
2023/05/14 01:09:18;;;;;;;2.40;1.58;;;19.10;71.00;;;;;;4084276;29;20487;-46
2023/05/14 01:11:47;;;;;;;4.25;1.60;;;19.10;71.00;;;;;;4084315;29;20045;-46
2023/05/14 01:14:32;;;;;;;3.63;1.48;;;19.10;70.90;;;;;;4080118;29;20043;-46
2023/05/14 01:17:00;;;;;;;3.72;1.60;;;19.10;71.00;;;;;;4081726;28;20047;-47
2023/05/14 01:19:38;;;;;;;1.60;1.48;;;19.10;71.30;;;;;;4081944;29;20042;-45
2023/05/14 01:22:01;;;;;;;2.83;1.80;;;19.10;71.40;;;;;;4083074;28;20047;-49
2023/05/14 01:24:23;;;;;;;2.03;1.60;;;19.10;71.50;;;;;;4077195;29;20040;-46
2023/05/14 01:26:49;;;;;;;2.13;1.42;;;19.20;71.50;;;;;;4084916;29;20039;-51
2023/05/14 01:29:28;;;;;;;2.40;1.48;;;19.20;71.50;;;;;;4077173;29;20091;-46
2023/05/14 01:31:53;;;;;;;1.67;1.50;;;19.20;71.60;;;;;;4085044;29;20042;-45
2023/05/14 01:34:19;;;;;;;2.33;1.33;;;19.20;71.60;;;;;;4078631;29;20051;-47
2023/05/14 01:36:42;;;;;;;2.42;1.55;;;19.20;71.50;;;;;;4080832;29;20118;-47
2023/05/14 01:39:05;;;;;;;3.63;1.40;;;19.20;71.40;;;;;;4078787;29;20046;-46
2023/05/14 01:41:28;;;;;;;2.08;1.30;;;19.20;71.30;;;;;;4083127;29;20038;-48
2023/05/14 01:43:51;;;;;;;2.03;1.50;;;19.20;71.50;;;;;;4079087;29;20039;-47
2023/05/14 01:46:17;;;;;;;2.15;1.33;;;19.20;71.70;;;;;;4087665;29;20032;-49
2023/05/14 01:48:40;;;;;;;2.83;1.50;;;19.20;71.70;;;;;;4081924;29;20053;-47
2023/05/14 01:51:03;;;;;;;2.83;1.60;;;19.20;71.80;;;;;;4087915;29;20040;-46
2023/05/14 01:53:25;;;;;;;1.42;1.30;;;19.30;72.00;;;;;;4085446;29;20039;-48
2023/05/14 01:55:47;;;;;;;2.15;1.30;;;19.30;72.20;;;;;;4079348;29;20472;-46
2023/05/14 01:58:10;;;;;;;2.42;1.52;;;19.30;72.40;;;;;;4082740;29;20942;-46
2023/05/14 02:00:32;;;;;;;3.25;1.60;;;19.30;72.60;;;;;;4078036;29;20087;-49
2023/05/14 02:02:55;;;;;;;2.53;1.35;;;19.30;73.00;;;;;;4083061;29;20051;-46
2023/05/14 02:05:17;;;;;;;2.00;1.48;;;19.30;73.20;;;;;;4065323;28;20035;-50
2023/05/14 02:07:40;;;;;;;2.25;1.63;;;19.30;73.20;;;;;;4081813;28;20134;-48
2023/05/14 02:10:03;;;;;;;2.63;1.42;;;19.30;73.30;;;;;;4082103;28;20102;-50
2023/05/14 02:12:25;;;;;;;3.78;1.50;;;19.40;73.30;;;;;;4083847;29;20472;-48
2023/05/14 02:14:48;;;;;;;3.38;1.63;;;19.40;73.50;;;;;;4075518;29;20042;-49
2023/05/14 02:17:11;;;;;;;3.38;1.60;;;19.40;74.00;;;;;;4089805;29;20054;-49
2023/05/14 02:19:33;;;;;;;3.85;1.50;;;19.40;74.20;;;;;;4075490;29;20039;-51
2023/05/14 02:21:55;;;;;;;3.40;1.50;;;19.40;74.20;;;;;;4083343;29;20052;-51
2023/05/14 02:24:18;;;;;;;3.40;1.55;;;19.40;74.30;;;;;;4065596;29;20126;-49
2023/05/14 02:26:41;;;;;;;3.92;1.90;;;19.40;75.20;;;;;;4079796;29;20036;-48
2023/05/14 02:29:03;;;;;;;3.22;1.70;;;19.40;74.50;;;;;;4088450;28;20043;-49
2023/05/14 02:31:26;;;;;;;3.58;1.38;;;19.50;74.60;;;;;;4087875;29;20506;-46
2023/05/14 02:33:48;;;;;;;3.50;1.70;;;19.50;74.50;;;;;;4083239;29;20036;-47
2023/05/14 02:36:10;;;;;;;5.43;1.98;;;19.50;75.10;;;;;;4087223;29;20181;-48
2023/05/14 02:38:33;;;;;;;6.43;3.25;;;19.50;74.90;;;;;;4079595;29;20380;-51
2023/05/14 02:40:55;;;;;;;18.48;9.35;;;19.50;74.80;;;;;;4087938;29;20044;-45
2023/05/14 02:43:18;;;;;;;16.27;8.75;;;19.50;75.30;;;;;;4087629;29;20086;-50
2023/05/14 02:45:40;;;;;;;12.20;8.77;;;19.50;75.20;;;;;;4079666;28;20483;-53
2023/05/14 02:48:03;;;;;;;14.95;8.98;;;19.50;75.10;;;;;;4077965;29;20058;-48
2023/05/14 02:50:25;;;;;;;13.07;7.82;;;19.50;74.90;;;;;;4079078;29;20098;-49
2023/05/14 02:52:47;;;;;;;14.60;8.45;;;19.50;74.80;;;;;;4085255;29;20287;-46
2023/05/14 02:55:10;;;;;;;12.25;7.35;;;19.60;75.50;;;;;;4065471;29;20036;-46
2023/05/14 02:57:35;;;;;;;10.30;7.03;;;19.60;75.00;;;;;;4078825;28;20049;-52
2023/05/14 02:59:58;;;;;;;13.18;6.93;;;19.60;74.80;;;;;;4082339;29;20068;-47
2023/05/14 03:02:20;;;;;;;12.60;6.40;;;19.60;74.70;;;;;;4075215;29;20610;-49
2023/05/14 03:04:42;;;;;;;11.32;5.88;;;19.60;74.60;;;;;;4086409;28;20054;-46
2023/05/14 03:07:08;;;;;;;8.35;5.00;;;19.70;74.60;;;;;;4082110;29;20070;-48
2023/05/14 03:09:30;;;;;;;9.90;5.03;;;19.60;74.50;;;;;;4077068;29;20051;-52
2023/05/14 03:11:53;;;;;;;6.25;4.28;;;19.60;74.40;;;;;;4087279;28;20154;-46
2023/05/14 03:14:15;;;;;;;9.60;3.85;;;19.70;74.50;;;;;;4069444;28;20043;-53
2023/05/14 03:16:38;;;;;;;6.15;3.60;;;19.60;74.30;;;;;;4082810;29;20043;-50
2023/05/14 03:19:01;;;;;;;7.45;3.60;;;19.70;74.20;;;;;;4080902;29;20126;-47
2023/05/14 03:21:24;;;;;;;6.35;2.97;;;19.70;74.00;;;;;;4081646;29;20055;-47
2023/05/14 03:23:46;;;;;;;6.32;2.78;;;19.70;74.00;;;;;;4078250;29;20039;-49
2023/05/14 03:26:09;;;;;;;6.07;2.90;;;19.70;73.80;;;;;;4086399;28;20122;-47
2023/05/14 03:28:31;;;;;;;7.70;2.53;;;19.70;73.70;;;;;;4082614;29;20610;-46
2023/05/14 03:30:54;;;;;;;5.70;2.08;;;19.70;73.60;;;;;;4074884;29;20130;-46
2023/05/14 03:33:16;;;;;;;3.50;1.92;;;19.80;73.60;;;;;;4075102;29;20040;-49
2023/05/14 03:35:39;;;;;;;3.83;1.80;;;19.80;73.50;;;;;;4080400;29;21131;-48
2023/05/14 03:38:01;;;;;;;4.75;1.88;;;19.80;73.30;;;;;;4083095;29;20043;-47
2023/05/14 03:40:24;;;;;;;3.90;1.90;;;19.90;73.30;;;;;;4085706;29;20514;-46
2023/05/14 03:42:47;;;;;;;2.75;1.60;;;19.90;73.30;;;;;;4087059;29;20051;-46
2023/05/14 03:45:10;;;;;;;2.72;1.73;;;19.90;73.20;;;;;;4081624;29;20043;-45
2023/05/14 03:47:32;;;;;;;4.63;2.10;;;19.90;73.20;;;;;;4087396;29;20082;-47
2023/05/14 03:49:56;;;;;;;3.40;2.00;;;19.90;73.70;;;;;;4080326;29;20373;-45
2023/05/14 03:52:18;;;;;;;2.53;1.92;;;19.90;73.00;;;;;;4090104;29;20040;-47
2023/05/14 03:54:41;;;;;;;3.20;2.03;;;19.90;73.00;;;;;;4086592;29;20066;-49
2023/05/14 03:57:03;;;;;;;4.85;1.98;;;20.00;73.00;;;;;;4078205;29;20087;-47
2023/05/14 03:59:26;;;;;;;3.10;2.15;;;20.00;72.80;;;;;;4071744;29;20055;-46
2023/05/14 04:01:50;;;;;;;3.22;1.80;;;20.00;72.70;;;;;;4078993;28;20055;-52
2023/05/14 04:04:12;;;;;;;3.53;1.60;;;20.10;72.60;;;;;;4073536;29;20473;-48
2023/05/14 04:06:35;;;;;;;3.45;1.75;;;20.10;72.50;;;;;;4057426;29;20463;-46
2023/05/14 04:08:58;;;;;;;5.80;1.73;;;20.20;72.40;;;;;;4069531;29;20090;-46
2023/05/14 04:11:20;;;;;;;4.82;1.60;;;20.10;72.30;;;;;;4078550;29;20036;-47
2023/05/14 04:13:43;;;;;;;4.10;2.00;;;20.20;73.00;;;;;;4074327;29;20475;-48
2023/05/14 04:16:09;;;;;;;4.68;1.65;;;20.20;72.40;;;;;;4077428;29;20238;-52
2023/05/14 04:18:34;;;;;;;3.67;1.40;;;20.20;72.20;;;;;;4074628;29;20043;-49
2023/05/14 04:20:59;;;;;;;4.10;1.50;;;20.30;72.30;;;;;;4072292;29;20118;-46
2023/05/14 04:23:49;;;;;;;5.60;1.50;;;20.30;72.30;;;;;;4078603;29;20048;-49
2023/05/14 04:26:12;;;;;;;4.95;1.80;;;20.30;72.20;;;;;;4075818;29;20066;-49
2023/05/14 04:28:34;;;;;;;3.05;1.40;;;20.30;72.00;;;;;;4076077;29;20494;-46
2023/05/14 04:31:00;;;;;;;5.43;1.60;;;20.30;71.90;;;;;;4075057;29;20110;-49
2023/05/14 04:33:22;;;;;;;6.50;1.50;;;20.30;71.90;;;;;;4081822;28;20031;-50
2023/05/14 04:35:46;;;;;;;3.72;1.50;;;20.40;71.80;;;;;;4079470;29;20079;-46
2023/05/14 04:38:08;;;;;;;2.78;1.30;;;20.40;71.60;;;;;;4080025;28;20079;-46
2023/05/14 04:40:37;;;;;;;4.85;1.63;;;20.40;71.70;;;;;;4071047;29;20127;-47
2023/05/14 04:43:11;;;;;;;5.72;1.50;;;20.40;71.60;;;;;;4077397;29;20795;-48
2023/05/14 04:45:37;;;;;;;3.28;1.48;;;20.40;71.60;;;;;;4076706;28;20039;-46
2023/05/14 04:47:59;;;;;;;5.93;1.35;;;20.40;71.50;;;;;;4072724;28;20083;-47
2023/05/14 04:50:22;;;;;;;5.25;1.23;;;20.40;71.30;;;;;;4064048;29;20475;-53
2023/05/14 04:52:44;;;;;;;3.38;1.17;;;20.50;71.20;;;;;;4076807;29;20047;-48
2023/05/14 04:55:10;;;;;;;2.28;1.35;;;20.50;71.00;;;;;;4079348;29;20114;-46
2023/05/14 04:57:32;;;;;;;2.65;1.38;;;20.50;70.90;;;;;;4075649;29;20106;-48
2023/05/14 04:59:55;;;;;;;2.15;1.30;;;20.50;70.80;;;;;;4082141;29;20078;-47
2023/05/14 05:02:17;;;;;;;2.38;1.00;;;20.50;70.70;;;;;;4077781;28;20036;-48
2023/05/14 05:04:40;;;;;;;1.02;0.70;;;20.50;70.60;;;;;;4075122;29;20062;-48
2023/05/14 05:07:05;;;;;;;2.50;1.10;;;20.50;70.50;;;;;;4076980;29;20126;-54
2023/05/14 05:09:28;;;;;;;3.25;1.30;;;20.50;70.50;;;;;;4077432;29;20526;-48
2023/05/14 05:11:50;;;;;;;1.80;0.93;;;20.50;70.40;;;;;;4077691;29;20546;-48
2023/05/14 05:14:15;;;;;;;1.25;0.88;;;20.60;70.30;;;;;;4077381;29;20078;-52
2023/05/14 05:16:38;;;;;;;2.50;1.30;;;20.60;70.30;;;;;;4074288;28;20248;-47
2023/05/14 05:19:00;;;;;;;1.15;0.80;;;20.60;70.40;;;;;;4075454;28;20039;-46
2023/05/14 05:21:23;;;;;;;2.80;0.90;;;20.50;70.20;;;;;;4071727;29;20126;-48
2023/05/14 05:23:45;;;;;;;1.90;0.73;;;20.60;70.30;;;;;;4074985;29;20458;-49
2023/05/14 05:26:08;;;;;;;2.25;0.80;;;20.50;70.20;;;;;;4071199;29;20039;-50
2023/05/14 05:28:30;;;;;;;0.85;0.80;;;20.50;70.20;;;;;;4073566;29;20063;-47
2023/05/14 05:30:53;;;;;;;2.45;0.82;;;20.50;70.20;;;;;;4077839;29;20062;-45
2023/05/14 05:33:18;;;;;;;2.38;0.63;;;20.50;70.30;;;;;;4075920;29;20050;-46
2023/05/14 05:35:42;;;;;;;1.38;0.57;;;20.50;70.30;;;;;;4072866;29;20044;-46
2023/05/14 05:38:04;;;;;;;1.25;0.70;;;20.50;70.30;;;;;;4075671;29;20091;-48
2023/05/14 05:40:26;;;;;;;2.28;0.75;;;20.60;70.20;;;;;;4076708;29;20121;-46
2023/05/14 05:42:49;;;;;;;2.00;0.75;;;20.50;70.10;;;;;;4077396;29;20031;-46
2023/05/14 05:45:12;;;;;;;2.85;0.80;;;20.60;70.20;;;;;;4078448;29;20114;-47
2023/05/14 05:47:34;;;;;;;1.73;0.73;;;20.50;70.00;;;;;;4058563;28;20524;-49
2023/05/14 05:49:57;;;;;;;1.20;0.93;;;20.50;70.00;;;;;;4077650;29;20054;-49
2023/05/14 05:52:19;;;;;;;2.13;1.17;;;20.50;70.00;;;;;;4073618;29;20042;-47
2023/05/14 05:54:42;;;;;;;2.03;0.68;;;20.50;70.00;;;;;;4082392;29;20096;-47
2023/05/14 05:57:04;;;;;;;1.80;0.85;;;20.50;70.00;;;;;;4078374;29;20047;-51
2023/05/14 05:59:27;;;;;;;2.97;0.70;;;20.50;70.10;;;;;;4076491;28;20478;-46
2023/05/14 06:01:49;;;;;;;1.73;0.60;;;20.50;70.10;;;;;;4084292;29;20074;-47
2023/05/14 06:04:12;;;;;;;0.52;0.50;;;20.50;70.10;;;;;;4084861;29;20346;-48
2023/05/14 06:06:34;;;;;;;1.80;0.70;;;20.40;70.00;;;;;;4084548;29;20091;-47
2023/05/14 06:08:56;;;;;;;1.30;0.75;;;20.40;70.00;;;;;;4081361;28;20126;-47
2023/05/14 06:11:20;;;;;;;4.05;1.15;;;20.40;70.10;;;;;;4079346;29;20404;-51
2023/05/14 06:13:43;;;;;;;4.53;0.95;;;20.40;70.50;;;;;;4082807;29;20082;-53
2023/05/14 06:16:05;;;;;;;6.32;1.45;;;20.40;71.00;;;;;;4078188;29;20039;-58
2023/05/14 06:18:28;;;;;;;7.95;1.20;;;20.40;71.20;;;;;;4081493;29;20039;-50
2023/05/14 06:20:50;;;;;;;3.30;1.30;;;20.40;71.50;;;;;;4088086;29;20384;-47
2023/05/14 06:23:12;;;;;;;6.45;0.95;;;20.40;71.50;;;;;;4086523;29;20431;-48
2023/05/14 06:25:35;;;;;;;2.67;0.82;;;20.40;71.20;;;;;;4082085;29;20049;-49
2023/05/14 06:27:57;;;;;;;17.23;1.25;;;20.40;71.00;;;;;;4079810;29;20050;-48
2023/05/14 06:30:19;;;;;;;2.67;0.65;;;20.40;70.80;;;;;;4077804;29;20038;-49
2023/05/14 06:32:42;;;;;;;6.47;0.88;;;20.40;70.70;;;;;;4080720;29;20178;-48
2023/05/14 06:35:10;;;;;;;1.27;0.57;;;20.40;70.70;;;;;;4080905;29;20031;-51
2023/05/14 06:37:35;;;;;;;1.38;0.70;;;20.40;70.60;;;;;;4089119;29;20113;-45
2023/05/14 06:39:58;;;;;;;2.10;0.60;;;20.40;70.60;;;;;;4083056;29;20034;-47
2023/05/14 06:42:20;;;;;;;2.83;0.85;;;20.40;70.60;;;;;;4089384;29;20043;-52
2023/05/14 06:44:43;;;;;;;2.05;0.57;;;20.40;70.60;;;;;;4074700;29;20501;-49
2023/05/14 06:47:07;;;;;;;0.93;0.40;;;20.40;70.50;;;;;;4088568;29;20126;-48
2023/05/14 06:49:29;;;;;;;0.75;0.45;;;20.40;70.50;;;;;;4086865;29;20103;-49
2023/05/14 06:51:57;;;;;;;1.30;0.50;;;20.40;70.80;;;;;;4077938;29;20095;-50
2023/05/14 06:54:20;;;;;;;0.40;0.40;;;20.40;70.50;;;;;;4082136;29;20032;-51
2023/05/14 06:56:42;;;;;;;1.90;0.60;;;20.30;70.40;;;;;;4087245;29;20051;-52
2023/05/14 06:59:05;;;;;;;0.85;0.30;;;20.30;70.40;;;;;;4076082;29;20531;-47
2023/05/14 07:01:27;;;;;;;0.70;0.50;;;20.30;70.40;;;;;;4089946;28;20157;-49
2023/05/14 07:03:50;;;;;;;1.13;0.47;;;20.30;71.00;;;;;;4092317;29;20090;-48
2023/05/14 07:06:12;;;;;;;1.75;0.50;;;20.30;70.40;;;;;;4082767;29;20118;-47
2023/05/14 07:08:35;;;;;;;3.67;1.23;;;20.30;70.40;;;;;;4083815;29;20103;-53
2023/05/14 07:10:57;;;;;;;6.28;1.02;;;20.30;71.00;;;;;;4081392;29;20035;-50
2023/05/14 07:13:20;;;;;;;8.20;1.20;;;20.30;71.00;;;;;;4091656;29;20102;-53
2023/05/14 07:15:42;;;;;;;3.22;1.48;;;20.30;71.00;;;;;;4088774;29;20079;-52
2023/05/14 07:18:05;;;;;;;6.60;1.42;;;20.30;71.00;;;;;;4090764;29;20040;-50
2023/05/14 07:20:27;;;;;;;3.33;1.30;;;20.20;70.80;;;;;;4088226;29;20062;-49
2023/05/14 07:22:50;;;;;;;2.65;1.23;;;20.30;70.90;;;;;;4092266;29;20055;-52
2023/05/14 07:25:13;;;;;;;4.05;1.10;;;20.20;70.90;;;;;;4087403;28;20118;-51
2023/05/14 07:27:35;;;;;;;2.20;1.30;;;20.20;70.70;;;;;;4081834;29;20731;-58
2023/05/14 07:29:58;;;;;;;2.95;1.48;;;20.20;71.40;;;;;;4082856;29;20535;-58
2023/05/14 07:32:20;;;;;;;3.92;1.92;;;20.20;71.40;;;;;;4080412;29;20396;-59
2023/05/14 07:34:42;;;;;;;3.40;1.80;;;20.20;71.60;;;;;;4081725;29;20048;-60
2023/05/14 07:37:05;;;;;;;4.45;1.88;;;20.20;71.70;;;;;;4088538;28;20043;-60
2023/05/14 07:39:28;;;;;;;4.10;1.80;;;20.30;71.90;;;;;;4064534;29;20104;-58
2023/05/14 07:41:51;;;;;;;4.38;2.25;;;20.20;71.90;;;;;;4085446;29;20484;-57
2023/05/14 07:44:14;;;;;;;4.28;2.17;;;20.30;71.90;;;;;;4090831;28;20032;-59
2023/05/14 07:46:36;;;;;;;3.10;1.90;;;20.30;72.10;;;;;;4074611;29;20498;-58
2023/05/14 07:48:59;;;;;;;3.97;2.10;;;20.30;72.00;;;;;;4086308;29;20141;-51
2023/05/14 07:51:21;;;;;;;5.63;2.50;;;20.30;72.10;;;;;;4083805;29;20066;-56
2023/05/14 07:53:44;;;;;;;8.95;2.80;;;20.40;72.20;;;;;;4086845;29;20044;-60
2023/05/14 07:56:07;;;;;;;3.78;2.25;;;20.30;72.50;;;;;;4079257;29;20066;-58
2023/05/14 07:58:29;;;;;;;5.45;2.60;;;20.30;72.50;;;;;;4083564;29;20480;-60
2023/05/14 08:00:52;;;;;;;5.05;2.78;;;20.40;72.40;;;;;;4082713;28;20395;-52
2023/05/14 08:03:14;;;;;;;3.70;2.42;;;20.40;72.50;;;;;;4079881;28;20134;-47
2023/05/14 08:05:36;;;;;;;4.28;2.63;;;20.40;72.20;;;;;;4082022;29;20044;-53
2023/05/14 08:07:59;;;;;;;5.60;2.65;;;20.30;72.40;;;;;;4085530;29;20047;-52
2023/05/14 08:10:21;;;;;;;6.05;2.95;;;20.30;71.70;;;;;;4076679;29;20036;-51
2023/05/14 08:12:44;;;;;;;5.70;2.80;;;20.40;72.10;;;;;;4093134;28;20067;-56
2023/05/14 08:15:07;;;;;;;15.25;3.83;;;20.30;71.80;;;;;;4077649;29;20051;-52
2023/05/14 08:17:29;;;;;;;9.93;2.80;;;20.30;71.70;;;;;;4087145;28;20052;-55
2023/05/14 08:19:52;;;;;;;8.68;2.90;;;20.30;72.50;;;;;;4085170;29;20294;-57
2023/05/14 08:22:15;;;;;;;4.53;2.40;;;20.30;71.90;;;;;;4084184;29;20086;-55
2023/05/14 08:24:38;;;;;;;4.32;2.28;;;20.30;71.90;;;;;;4080703;29;20048;-50
2023/05/14 08:27:01;;;;;;;8.48;2.72;;;20.30;72.00;;;;;;4082017;28;20139;-60
2023/05/14 08:29:24;;;;;;;16.50;2.28;;;20.40;72.30;;;;;;4066982;28;20051;-61
2023/05/14 08:31:48;;;;;;;6.78;2.22;;;20.40;72.40;;;;;;4079888;29;20412;-60
2023/05/14 08:34:10;;;;;;;;;;;20.40;72.30;;;;;;4086400;29;20043;-59
2023/05/14 08:36:32;;;;;;;6.43;2.17;;;20.40;72.30;;;;;;4081587;29;20282;-59
2023/05/14 08:38:55;;;;;;;4.43;1.95;;;20.40;72.40;;;;;;4065762;29;20126;-60
2023/05/14 08:41:18;;;;;;;3.85;1.83;;;20.40;72.40;;;;;;4079943;29;20049;-54
2023/05/14 08:43:47;;;;;;;3.10;2.00;;;20.40;72.90;;;;;;4079038;29;20040;-58
2023/05/14 08:46:13;;;;;;;5.43;2.08;;;20.40;72.40;;;;;;4081493;29;20397;-59
2023/05/14 08:48:36;;;;;;;2.63;1.70;;;20.40;72.40;;;;;;4081088;28;20311;-53
2023/05/14 08:51:00;;;;;;;3.78;1.88;;;20.40;72.50;;;;;;4083513;29;20043;-55
2023/05/14 08:53:22;;;;;;;4.80;2.03;;;20.40;72.40;;;;;;4084824;29;20547;-54
2023/05/14 08:55:47;;;;;;;3.88;1.60;;;20.40;73.10;;;;;;4084233;29;20510;-56
2023/05/14 08:58:09;;;;;;;2.85;1.70;;;20.40;72.40;;;;;;4080287;29;20043;-59
2023/05/14 09:00:32;;;;;;;3.85;2.20;;;20.40;72.40;;;;;;4063544;29;20083;-60
2023/05/14 09:02:55;;;;;;;3.97;1.73;;;20.40;72.50;;;;;;4072944;29;20843;-60
2023/05/14 09:05:20;;;;;;;3.33;1.70;;;20.40;72.40;;;;;;4071587;29;20550;-60
2023/05/14 09:07:42;;;;;;;22.48;2.97;;;20.40;72.40;;;;;;4077931;28;20208;-60
2023/05/14 09:10:05;;;;;;;3.95;2.08;;;20.40;72.50;;;;;;4069517;29;20036;-56
2023/05/14 09:12:28;;;;;;;2.97;1.80;;;20.40;72.50;;;;;;4072047;29;20040;-60
2023/05/14 09:14:51;;;;;;;5.07;1.83;;;20.40;72.50;;;;;;4073234;29;20152;-60
2023/05/14 09:17:13;;;;;;;3.10;1.92;;;20.40;72.50;;;;;;4071560;29;20443;-59
2023/05/14 09:19:37;;;;;;;3.80;1.88;;;20.40;72.60;;;;;;4075976;29;20047;-56
2023/05/14 09:22:00;;;;;;;2.42;1.52;;;20.40;72.50;;;;;;4079811;28;20054;-59
2023/05/14 09:24:25;;;;;;;2.67;1.58;;;20.40;72.50;;;;;;4070963;29;20043;-50
2023/05/14 09:26:53;;;;;;;4.85;1.70;;;20.40;72.50;;;;;;4075779;29;20039;-52
2023/05/14 09:29:15;;;;;;;6.35;1.77;;;20.40;72.70;;;;;;4075420;29;20154;-52
2023/05/14 09:31:38;;;;;;;4.80;1.75;;;20.40;72.60;;;;;;4076706;29;20076;-55
2023/05/14 09:34:01;;;;;;;5.80;1.90;;;20.40;72.70;;;;;;4076849;29;20051;-59
2023/05/14 09:36:27;;;;;;;2.90;1.63;;;20.40;72.60;;;;;;4070743;29;20043;-58
2023/05/14 09:38:49;;;;;;;3.28;1.60;;;20.40;72.60;;;;;;4078244;29;20063;-55
2023/05/14 09:41:12;;;;;;;3.10;1.67;;;20.40;72.60;;;;;;4073744;29;20079;-59
2023/05/14 09:43:34;;;;;;;2.75;1.58;;;20.40;72.60;;;;;;4076944;29;21478;-53
2023/05/14 09:45:56;;;;;;;2.40;1.70;;;20.40;72.60;;;;;;4075714;29;20040;-60
2023/05/14 09:48:20;;;;;;;3.33;1.70;;;20.40;72.70;;;;;;4062175;29;20131;-60
2023/05/14 09:50:44;;;;;;;2.60;1.50;;;20.40;72.60;;;;;;4076676;29;20415;-58
2023/05/14 09:53:10;;;;;;;3.15;2.20;;;20.40;72.60;;;;;;4075280;29;20040;-54
2023/05/14 09:55:35;;;;;;;11.75;2.85;;;20.30;72.60;;;;;;4074348;29;20539;-58
2023/05/14 09:57:57;;;;;;;8.23;2.00;;;20.30;72.50;;;;;;4075495;29;20043;-57
2023/05/14 10:00:20;;;;;;;13.63;2.10;;;20.40;72.60;;;;;;4073419;29;20039;-59
2023/05/14 10:02:44;;;;;;;5.28;2.00;;;20.30;72.50;;;;;;4073617;29;20039;-59
2023/05/14 10:05:08;;;;;;;9.32;2.20;;;20.40;72.50;;;;;;4079630;29;20028;-52
2023/05/14 10:07:41;;;;;;;4.75;1.90;;;20.40;72.50;;;;;;4072448;29;20055;-55
2023/05/14 10:10:10;;;;;;;3.17;1.73;;;20.30;72.50;;;;;;4077147;28;20106;-51
2023/05/14 10:12:36;;;;;;;5.18;1.92;;;20.30;72.40;;;;;;4075183;29;20106;-58
2023/05/14 10:15:03;;;;;;;4.03;1.85;;;20.30;72.50;;;;;;4080973;29;20118;-50
2023/05/14 10:17:30;;;;;;;2.45;2.00;;;20.30;72.60;;;;;;4076289;29;20027;-48
2023/05/14 10:19:59;;;;;;;5.28;2.05;;;20.30;72.50;;;;;;4078915;29;20480;-57
2023/05/14 10:22:26;;;;;;;4.97;1.70;;;20.40;72.60;;;;;;4077754;29;20052;-57
2023/05/14 10:24:52;;;;;;;5.45;1.90;;;20.30;72.60;;;;;;4079437;29;20106;-51
2023/05/14 10:27:16;;;;;;;2.10;1.67;;;20.30;72.50;;;;;;4080336;29;20032;-55
2023/05/14 10:29:38;;;;;;;3.88;1.90;;;20.30;72.50;;;;;;4061885;28;20635;-57
2023/05/14 10:32:05;;;;;;;5.00;2.08;;;20.30;72.40;;;;;;4079387;29;20043;-54
2023/05/14 10:34:39;;;;;;;3.60;1.92;;;20.30;72.50;;;;;;4065450;29;20175;-51
2023/05/14 10:37:06;;;;;;;6.15;2.88;;;20.30;72.50;;;;;;4077558;28;20582;-56
2023/05/14 10:39:48;;;;;;;5.75;1.95;;;20.30;72.50;;;;;;4077643;29;20119;-56
2023/05/14 10:42:19;;;;;;;3.30;1.70;;;20.30;72.40;;;;;;4078839;29;20043;-56
2023/05/14 10:44:55;;;;;;;4.15;1.90;;;20.30;72.40;;;;;;4078661;29;20027;-56
2023/05/14 10:47:19;;;;;;;2.63;1.88;;;20.30;72.50;;;;;;4078570;29;20032;-58
2023/05/14 10:49:42;;;;;;;7.30;2.50;;;20.30;72.40;;;;;;4076736;29;20073;-54
2023/05/14 10:52:08;;;;;;;2.92;1.63;;;20.30;72.40;;;;;;4085804;29;20043;-51
2023/05/14 10:54:36;;;;;;;5.28;2.40;;;20.30;72.00;;;;;;4086347;29;20058;-54
2023/05/14 10:57:01;;;;;;;3.85;2.30;;;20.30;71.20;;;;;;4087932;29;20520;-53
2023/05/14 10:59:27;;;;;;;3.75;2.35;;;20.20;71.10;;;;;;4086464;29;20035;-53
2023/05/14 11:01:49;;;;;;;3.50;2.63;;;20.20;70.90;;;;;;4086829;29;20527;-51
2023/05/14 11:04:24;;;;;;;5.05;3.03;;;20.20;70.80;;;;;;4080452;29;20083;-53
2023/05/14 11:06:51;;;;;;;7.63;3.22;;;20.10;71.10;;;;;;4078882;29;20117;-56
2023/05/14 11:09:17;;;;;;;10.43;4.03;;;20.10;72.10;;;;;;4082829;28;20054;-52
2023/05/14 11:11:39;;;;;;;25.92;4.32;;;20.10;72.60;;;;;;4074399;29;20043;-58
2023/05/14 11:14:02;;;;;;;12.60;3.58;;;20.20;73.30;;;;;;4077973;29;20122;-59
2023/05/14 11:16:29;;;;;;;5.57;2.80;;;20.20;73.30;;;;;;4086056;29;20067;-59
2023/05/14 11:19:04;;;;;;;8.45;2.33;;;20.20;73.20;;;;;;4080528;29;20051;-58
2023/05/14 11:21:27;;;;;;;7.53;2.60;;;20.20;73.10;;;;;;4080397;29;20059;-54
2023/05/14 11:23:49;;;;;;;8.25;2.47;;;20.20;73.20;;;;;;4081928;29;20503;-54
2023/05/14 11:26:13;;;;;;;4.85;2.45;;;20.30;73.20;;;;;;4078492;29;20066;-50
2023/05/14 11:28:35;;;;;;;10.65;2.80;;;20.30;73.30;;;;;;4077519;29;20079;-50
2023/05/14 11:30:58;;;;;;;7.70;2.50;;;20.30;73.40;;;;;;4083720;29;20532;-50
2023/05/14 11:33:20;;;;;;;5.25;2.20;;;20.30;73.40;;;;;;4080972;29;20525;-51
2023/05/14 11:35:44;;;;;;;5.03;2.30;;;20.30;73.30;;;;;;4081816;29;20455;-52
2023/05/14 11:38:06;;;;;;;4.68;2.00;;;20.30;73.20;;;;;;4086669;28;20042;-52
2023/05/14 11:40:29;;;;;;;2.75;2.00;;;20.30;73.10;;;;;;4077098;29;20051;-57
2023/05/14 11:42:52;;;;;;;3.20;2.13;;;20.30;73.10;;;;;;4072996;29;20047;-55
2023/05/14 11:45:25;;;;;;;2.72;1.90;;;20.20;73.00;;;;;;4083080;29;20055;-55
2023/05/14 11:47:47;;;;;;;2.90;2.15;;;20.20;73.00;;;;;;4080843;28;20085;-54
2023/05/14 11:50:10;;;;;;;5.47;2.10;;;20.20;73.00;;;;;;4074374;28;20126;-52
2023/05/14 11:52:41;;;;;;;3.72;2.05;;;20.20;73.00;;;;;;4085504;29;20126;-57
2023/05/14 11:55:05;;;;;;;8.55;2.30;;;20.20;73.30;;;;;;4083543;28;20027;-57
2023/05/14 11:57:27;;;;;;;3.42;1.58;;;20.20;73.20;;;;;;4064568;29;20487;-55
2023/05/14 11:59:58;;;;;;;5.43;1.90;;;20.20;73.10;;;;;;4076544;29;20106;-55
2023/05/14 12:02:21;;;;;;;4.57;1.90;;;20.20;73.30;;;;;;4080286;29;20463;-50
2023/05/14 12:04:49;;;;;;;5.43;1.95;;;20.20;73.30;;;;;;4082145;29;20091;-53
2023/05/14 12:07:14;;;;;;;2.88;2.00;;;20.20;73.20;;;;;;4077033;29;20095;-55
2023/05/14 12:09:39;;;;;;;2.65;1.90;;;20.20;73.10;;;;;;4084423;28;20107;-56
2023/05/14 12:12:09;;;;;;;2.70;2.00;;;20.20;73.20;;;;;;4080766;29;20043;-55
2023/05/14 12:14:44;;;;;;;6.72;2.10;;;20.20;73.20;;;;;;4081613;28;20044;-54
2023/05/14 12:17:15;;;;;;;;;;;20.20;73.30;;;;;;4084006;28;20146;-53
2023/05/14 12:19:41;;;;;;;4.60;1.92;;;20.20;73.30;;;;;;4081906;29;20398;-53
2023/05/14 12:22:03;;;;;;;2.90;2.03;;;20.10;73.30;;;;;;4085028;29;20055;-51
2023/05/14 12:24:26;;;;;;;4.10;1.88;;;20.10;73.30;;;;;;4079968;29;20047;-51
2023/05/14 12:26:51;;;;;;;4.60;1.90;;;20.10;73.40;;;;;;4081432;29;20534;-53
2023/05/14 12:29:14;;;;;;;3.17;2.22;;;20.10;73.40;;;;;;4082599;29;20087;-55